Time;durP1;ratioP1;P1;durP2;ratioP2;P2;SDS_P1;SDS_P2;PMS_P1;PMS_P2;Temp;Humidity;BMP_temperature;BMP_pressure;BME280_temperature;BME280_humidity;BME280_pressure;Samples;Min_cycle;Max_cycle;Signal;HPM_P1;HPM_P2
2022/04/07 00:02:25;;;;;;;25.60;24.50;;;10.80;99.90;;;;;;5069862;28;20940;-76
2022/04/07 00:04:51;;;;;;;24.03;23.03;;;10.70;99.90;;;;;;5069586;28;20485;-76
2022/04/07 00:07:18;;;;;;;24.30;23.37;;;10.60;99.90;;;;;;5069664;28;20454;-77
2022/04/07 00:09:45;;;;;;;23.63;22.73;;;10.60;99.90;;;;;;5069803;28;20448;-78
2022/04/07 00:12:12;;;;;;;22.10;21.20;;;10.50;99.90;;;;;;5069925;28;20514;-78
2022/04/07 00:14:38;;;;;;;24.30;23.20;;;10.50;99.90;;;;;;5069728;28;20447;-81
2022/04/07 00:17:05;;;;;;;24.17;23.17;;;10.50;99.90;;;;;;5072348;28;20443;-83
2022/04/07 00:19:33;;;;;;;24.40;23.40;;;10.50;99.90;;;;;;5073086;28;20482;-83
2022/04/07 00:22:00;;;;;;;25.43;24.20;;;10.40;99.90;;;;;;5073214;28;20452;-85
2022/04/07 00:24:27;;;;;;;24.43;23.43;;;10.20;99.90;;;;;;5073339;28;20501;-84
2022/04/07 00:26:54;;;;;;;24.90;23.80;;;10.20;99.90;;;;;;5073346;28;20849;-84
2022/04/07 00:29:20;;;;;;;23.80;22.90;;;10.10;99.90;;;;;;5073039;28;20444;-84
2022/04/07 00:31:55;;;;;;;24.00;23.00;;;10.10;99.90;;;;;;5073703;28;20504;-86
2022/04/07 00:34:22;;;;;;;24.00;23.00;;;10.00;99.90;;;;;;5073455;28;20455;-85
2022/04/07 00:36:50;;;;;;;23.73;22.70;;;10.10;99.90;;;;;;5072887;28;20451;-84
2022/04/07 00:39:17;;;;;;;23.43;22.50;;;10.10;99.90;;;;;;5072639;28;20480;-84
2022/04/07 00:41:45;;;;;;;22.77;21.80;;;10.10;99.90;;;;;;5073036;28;20505;-83
2022/04/07 00:44:12;;;;;;;21.80;20.80;;;10.20;99.90;;;;;;5072950;28;20550;-83
2022/04/07 00:46:40;;;;;;;20.80;20.00;;;10.20;99.90;;;;;;5072939;28;20451;-83
2022/04/07 00:49:07;;;;;;;20.80;20.00;;;10.30;99.90;;;;;;5072662;28;20447;-82
2022/04/07 00:51:35;;;;;;;20.97;20.17;;;10.40;99.90;;;;;;5072399;28;20505;-82
2022/04/07 00:54:04;;;;;;;20.97;20.17;;;10.50;99.90;;;;;;5072708;28;21019;-86
2022/04/07 00:56:32;;;;;;;20.13;19.43;;;10.50;99.90;;;;;;5072655;28;20478;-85
2022/04/07 00:58:59;;;;;;;19.43;18.73;;;10.60;99.90;;;;;;5072341;28;20488;-83
2022/04/07 01:01:28;;;;;;;18.10;17.50;;;10.60;99.90;;;;;;5072828;28;20451;-84
2022/04/07 01:03:55;;;;;;;17.17;16.57;;;10.70;99.90;;;;;;5072483;28;20538;-79
2022/04/07 01:06:22;;;;;;;16.70;16.10;;;10.70;99.90;;;;;;5072201;28;20936;-80
2022/04/07 01:08:48;;;;;;;16.27;15.67;;;10.70;99.90;;;;;;5072077;28;20440;-79
2022/04/07 01:11:17;;;;;;;16.20;15.70;;;10.70;99.90;;;;;;5072454;28;20448;-82
2022/04/07 01:13:48;;;;;;;15.47;14.97;;;10.80;99.90;;;;;;5073355;28;20451;-78
2022/04/07 01:16:15;;;;;;;14.43;13.93;;;10.80;99.90;;;;;;5072193;28;21012;-78
2022/04/07 01:18:41;;;;;;;14.53;14.03;;;10.70;99.90;;;;;;5072123;28;20875;-79
2022/04/07 01:21:11;;;;;;;13.90;13.40;;;10.80;99.90;;;;;;5071920;28;20540;-78
2022/04/07 01:23:39;;;;;;;13.57;13.07;;;10.70;99.90;;;;;;5071653;28;20718;-77
2022/04/07 01:26:09;;;;;;;13.00;12.60;;;10.70;99.90;;;;;;5071803;28;20452;-76
2022/04/07 01:28:36;;;;;;;13.07;12.57;;;10.70;99.90;;;;;;5070788;28;20990;-77
2022/04/07 01:31:02;;;;;;;13.80;13.20;;;10.70;99.90;;;;;;5071673;28;20447;-77
2022/04/07 01:33:30;;;;;;;12.50;12.10;;;10.80;99.90;;;;;;5071559;28;20504;-78
2022/04/07 01:35:57;;;;;;;11.97;11.57;;;10.80;99.90;;;;;;5071739;28;20452;-77
2022/04/07 01:38:24;;;;;;;12.10;11.70;;;10.90;99.90;;;;;;5071526;28;20443;-77
2022/04/07 01:40:51;;;;;;;11.37;10.97;;;10.80;99.90;;;;;;5071594;28;20482;-77
2022/04/07 01:43:19;;;;;;;11.50;11.10;;;10.80;99.90;;;;;;5071435;28;20503;-78
2022/04/07 01:45:47;;;;;;;11.43;11.03;;;10.80;99.90;;;;;;5071261;28;20955;-78
2022/04/07 01:48:16;;;;;;;11.80;11.40;;;10.70;99.90;;;;;;5071285;28;20451;-78
2022/04/07 01:50:44;;;;;;;11.67;11.27;;;10.60;99.90;;;;;;5071467;28;20447;-77
2022/04/07 01:53:11;;;;;;;11.80;11.40;;;10.50;99.90;;;;;;5071602;28;20447;-78
2022/04/07 01:55:39;;;;;;;13.70;12.63;;;10.50;99.90;;;;;;5071140;28;20510;-78
2022/04/07 01:58:06;;;;;;;10.90;10.50;;;10.40;99.90;;;;;;5071055;28;20483;-78
2022/04/07 02:00:34;;;;;;;12.30;11.80;;;10.40;99.90;;;;;;5070977;28;21110;-78
2022/04/07 02:03:04;;;;;;;12.13;11.63;;;10.40;99.90;;;;;;5071125;28;20443;-81
2022/04/07 02:05:31;;;;;;;11.90;11.50;;;10.40;99.90;;;;;;5070986;28;20512;-79
2022/04/07 02:07:57;;;;;;;11.50;11.10;;;10.40;99.90;;;;;;5070781;28;20807;-80
2022/04/07 02:10:26;;;;;;;11.80;11.40;;;10.40;99.90;;;;;;5071139;28;20455;-79
2022/04/07 02:12:53;;;;;;;11.20;10.80;;;10.50;99.90;;;;;;5071325;28;20555;-79
2022/04/07 02:15:19;;;;;;;11.30;10.80;;;10.40;99.90;;;;;;5071000;28;20853;-79
2022/04/07 02:17:47;;;;;;;10.47;10.07;;;10.50;99.90;;;;;;5070481;28;20447;-79
2022/04/07 02:20:14;;;;;;;10.63;10.23;;;10.50;99.90;;;;;;5070468;28;20996;-77
2022/04/07 02:22:41;;;;;;;10.37;10.00;;;10.50;99.90;;;;;;5071138;28;20456;-77
2022/04/07 02:25:09;;;;;;;11.30;10.90;;;10.60;99.90;;;;;;5070593;28;20481;-78
2022/04/07 02:27:37;;;;;;;10.50;10.10;;;10.60;99.90;;;;;;5070656;28;20439;-78
2022/04/07 02:30:06;;;;;;;10.40;10.00;;;10.70;99.90;;;;;;5070287;28;20449;-78
2022/04/07 02:32:32;;;;;;;10.67;10.27;;;10.70;99.90;;;;;;5070656;28;20481;-78
2022/04/07 02:35:00;;;;;;;10.43;10.00;;;10.70;99.90;;;;;;5071087;28;20524;-81
2022/04/07 02:37:27;;;;;;;10.87;10.47;;;10.70;99.90;;;;;;5070601;28;20450;-77
2022/04/07 02:39:55;;;;;;;10.63;10.27;;;10.70;99.90;;;;;;5070526;28;20480;-78
2022/04/07 02:42:21;;;;;;;10.37;9.97;;;10.80;99.90;;;;;;5070432;28;20456;-78
2022/04/07 02:44:48;;;;;;;10.80;10.40;;;10.80;99.90;;;;;;5070322;28;20834;-78
2022/04/07 02:47:15;;;;;;;10.30;9.80;;;10.80;99.90;;;;;;5070583;28;20513;-77
2022/04/07 02:49:41;;;;;;;9.13;8.83;;;10.80;99.90;;;;;;5070583;28;20459;-77
2022/04/07 02:52:11;;;;;;;9.73;9.33;;;10.80;99.90;;;;;;5070430;28;20457;-77
2022/04/07 02:54:38;;;;;;;9.73;9.43;;;10.90;99.90;;;;;;5070239;28;20456;-77
2022/04/07 02:57:05;;;;;;;9.80;9.50;;;10.90;99.90;;;;;;5069838;28;20474;-77
2022/04/07 08:24:59;;;;;;;9.40;9.00;;;14.20;99.90;;;;;;6044227;22;1206454;-74
2022/04/07 08:27:26;;;;;;;9.57;9.17;;;14.20;99.90;;;;;;6179746;23;20186;-77
2022/04/07 08:29:52;;;;;;;10.20;9.53;;;14.20;99.90;;;;;;6182646;23;20417;-76
2022/04/07 08:32:19;;;;;;;9.90;9.50;;;14.20;99.90;;;;;;6182756;23;20425;-74
2022/04/07 08:34:47;;;;;;;9.90;9.60;;;14.50;99.90;;;;;;6182732;23;20406;-76
2022/04/07 08:37:13;;;;;;;9.83;9.40;;;14.70;99.90;;;;;;6183229;23;20413;-75
2022/04/07 08:39:40;;;;;;;9.77;9.47;;;15.00;99.90;;;;;;6183472;23;20410;-76
2022/04/07 08:42:08;;;;;;;10.10;9.70;;;15.00;99.90;;;;;;6183709;23;20414;-76
2022/04/07 08:44:35;;;;;;;10.37;10.07;;;14.90;99.90;;;;;;6183029;23;20959;-76
2022/04/07 08:47:02;;;;;;;10.60;10.20;;;14.60;99.90;;;;;;6183460;23;20499;-76
2022/04/07 08:49:32;;;;;;;10.40;10.00;;;14.50;99.90;;;;;;6183340;23;20464;-76
2022/04/07 08:51:59;;;;;;;9.07;8.77;;;14.50;99.90;;;;;;6183349;23;20417;-76
2022/04/07 08:54:26;;;;;;;9.83;9.53;;;14.50;99.90;;;;;;6183199;23;20404;-77
2022/04/07 08:56:53;;;;;;;10.30;10.00;;;14.60;99.90;;;;;;6183499;23;20409;-75
2022/04/07 08:59:22;;;;;;;10.30;9.90;;;14.70;99.90;;;;;;6182981;23;20432;-76
2022/04/07 09:01:48;;;;;;;9.63;9.10;;;14.80;99.90;;;;;;6182045;23;20417;-76
2022/04/07 09:04:15;;;;;;;8.80;8.50;;;14.80;99.90;;;;;;6182464;23;20441;-76
2022/04/07 09:06:43;;;;;;;9.37;9.07;;;14.80;99.90;;;;;;6182539;23;20456;-75
2022/04/07 09:09:11;;;;;;;9.30;8.90;;;14.70;99.90;;;;;;6183333;23;20409;-76
2022/04/07 09:11:38;;;;;;;10.10;9.40;;;14.50;99.90;;;;;;6183267;23;20409;-76
2022/04/07 09:14:05;;;;;;;9.77;9.40;;;14.70;99.90;;;;;;6183565;23;20409;-76
2022/04/07 09:16:37;;;;;;;9.30;9.00;;;14.80;99.90;;;;;;6182957;23;20417;-76
2022/04/07 09:19:05;;;;;;;9.30;9.00;;;14.70;99.90;;;;;;6183277;23;20404;-74
2022/04/07 09:21:34;;;;;;;9.30;9.00;;;14.60;99.90;;;;;;6182901;23;20676;-76
2022/04/07 09:24:05;;;;;;;9.50;9.10;;;14.70;99.90;;;;;;6173034;23;20446;-76
2022/04/07 09:26:32;;;;;;;9.53;9.13;;;14.90;99.90;;;;;;6152614;23;21220;-75
2022/04/07 09:28:59;;;;;;;9.30;8.90;;;14.90;99.70;;;;;;6152764;23;20407;-75
2022/04/07 09:31:26;;;;;;;10.60;10.20;;;15.00;99.70;;;;;;6153393;23;20484;-78
2022/04/07 09:33:55;;;;;;;9.30;9.00;;;15.00;99.90;;;;;;6153524;23;20412;-76
2022/04/07 09:36:23;;;;;;;9.77;9.47;;;14.70;99.90;;;;;;6153379;23;20430;-78
2022/04/07 09:38:51;;;;;;;8.73;8.43;;;14.60;99.90;;;;;;6153194;23;20410;-75
2022/04/07 09:41:19;;;;;;;9.70;9.40;;;14.50;99.90;;;;;;6153223;23;20418;-75
2022/04/07 09:43:47;;;;;;;11.47;11.07;;;14.40;99.90;;;;;;6153358;23;20605;-76
2022/04/07 09:46:15;;;;;;;13.67;13.10;;;14.30;99.90;;;;;;6153955;23;20407;-79
2022/04/07 09:49:01;;;;;;;12.70;12.30;;;14.10;99.90;;;;;;6154584;23;20461;-81
2022/04/07 09:51:28;;;;;;;11.27;10.83;;;13.90;99.90;;;;;;6154161;23;20395;-81
2022/04/07 09:53:56;;;;;;;9.80;9.40;;;13.80;99.90;;;;;;6153898;23;20407;-81
2022/04/07 09:56:28;;;;;;;9.30;8.90;;;13.90;99.90;;;;;;6153843;23;20411;-80
2022/04/07 09:58:55;;;;;;;9.57;9.27;;;14.30;99.90;;;;;;6153814;23;20422;-77
2022/04/07 10:01:23;;;;;;;10.10;9.70;;;14.70;99.90;;;;;;6152779;23;20465;-76
2022/04/07 10:03:51;;;;;;;9.40;9.10;;;14.90;99.90;;;;;;6153389;23;20446;-76
2022/04/07 10:06:20;;;;;;;9.67;9.27;;;15.50;99.90;;;;;;6152775;23;20415;-76
2022/04/07 10:08:50;;;;;;;9.80;9.40;;;15.90;99.90;;;;;;6152569;23;20494;-76
2022/04/07 10:11:18;;;;;;;9.23;8.83;;;16.10;99.70;;;;;;6152543;23;20438;-75
2022/04/07 10:13:45;;;;;;;9.80;9.40;;;16.00;99.60;;;;;;6152757;23;20590;-76
2022/04/07 10:16:13;;;;;;;9.70;9.40;;;16.20;99.00;;;;;;6152794;23;20421;-75
2022/04/07 10:18:45;;;;;;;10.10;9.70;;;16.30;98.90;;;;;;6153038;23;20415;-76
2022/04/07 10:21:28;;;;;;;9.47;9.07;;;16.20;98.20;;;;;;6153025;23;20399;-76
2022/04/07 10:24:06;;;;;;;9.17;8.87;;;16.10;98.50;;;;;;6152684;23;20450;-77
2022/04/07 10:26:33;;;;;;;10.60;9.90;;;16.10;98.00;;;;;;6152498;23;20489;-76
2022/04/07 10:29:00;;;;;;;9.00;8.70;;;16.10;98.20;;;;;;6152807;23;20446;-76
2022/04/07 10:31:30;;;;;;;10.00;9.60;;;16.10;98.20;;;;;;6152853;23;20411;-76
2022/04/07 10:34:06;;;;;;;9.47;9.10;;;16.20;97.90;;;;;;6152711;23;20413;-77
2022/04/07 10:36:39;;;;;;;10.23;9.77;;;16.30;98.00;;;;;;6152616;23;20477;-76
2022/04/07 10:39:12;;;;;;;9.70;9.40;;;16.20;97.20;;;;;;6152913;23;20387;-75
2022/04/07 10:41:51;;;;;;;8.80;8.50;;;16.50;97.30;;;;;;6152889;23;20387;-76
2022/04/07 10:44:20;;;;;;;9.30;9.00;;;16.70;96.40;;;;;;6152518;23;20445;-77
2022/04/07 10:46:47;;;;;;;9.60;9.30;;;16.60;97.10;;;;;;6152140;23;20457;-77
2022/04/07 10:49:22;;;;;;;8.97;8.67;;;16.40;97.20;;;;;;6152075;23;20418;-76
2022/04/07 10:51:52;;;;;;;9.00;8.50;;;16.50;97.20;;;;;;6154305;23;20398;-75
2022/04/07 10:54:21;;;;;;;9.20;8.90;;;16.50;97.20;;;;;;6149616;23;20464;-75
2022/04/07 10:56:49;;;;;;;12.63;9.13;;;16.80;97.10;;;;;;6153291;23;20894;-75
2022/04/07 10:59:21;;;;;;;9.30;8.80;;;17.70;95.70;;;;;;6153651;23;20533;-75
2022/04/07 11:02:02;;;;;;;9.30;9.00;;;18.10;94.70;;;;;;6153790;23;20395;-76
2022/04/07 11:04:44;;;;;;;9.77;9.27;;;17.90;94.70;;;;;;6153621;23;20430;-76
2022/04/07 11:07:16;;;;;;;9.40;9.00;;;17.80;95.00;;;;;;6153773;23;20469;-76
2022/04/07 11:09:44;;;;;;;9.10;8.80;;;18.50;93.90;;;;;;6153051;23;20913;-77
2022/04/07 11:12:13;;;;;;;9.40;9.10;;;17.90;94.00;;;;;;6153676;23;20406;-77
2022/04/07 11:14:40;;;;;;;8.97;8.67;;;17.40;95.20;;;;;;6153949;23;20406;-77
2022/04/07 11:17:09;;;;;;;8.97;8.67;;;17.20;95.20;;;;;;6153973;23;20418;-77
2022/04/07 11:19:47;;;;;;;8.87;8.37;;;17.20;95.20;;;;;;6153343;23;20969;-76
2022/04/07 11:22:17;;;;;;;8.67;8.37;;;17.40;95.00;;;;;;6153428;23;20401;-76
2022/04/07 11:24:45;;;;;;;8.70;8.30;;;17.80;94.50;;;;;;6152877;23;20778;-77
2022/04/07 11:27:35;;;;;;;9.97;9.40;;;18.00;94.60;;;;;;6153359;23;20902;-77
2022/04/07 11:30:06;;;;;;;9.47;9.07;;;18.40;93.70;;;;;;6153321;23;21109;-77
2022/04/07 11:32:32;;;;;;;8.37;8.07;;;18.10;93.30;;;;;;6153434;23;20418;-77
2022/04/07 11:35:12;;;;;;;9.60;9.30;;;17.90;93.50;;;;;;6153068;23;20411;-78
2022/04/07 11:37:44;;;;;;;8.60;8.30;;;18.00;93.40;;;;;;6153714;23;20870;-76
2022/04/07 11:40:12;;;;;;;8.80;8.50;;;17.40;94.00;;;;;;6152854;23;20410;-77
2022/04/07 11:42:40;;;;;;;9.00;8.70;;;17.50;94.50;;;;;;6153550;23;20466;-78
2022/04/07 11:45:08;;;;;;;8.53;8.23;;;18.00;93.80;;;;;;6153986;23;20798;-76
2022/04/07 11:47:37;;;;;;;8.77;8.33;;;18.00;93.00;;;;;;6152226;23;20438;-77
2022/04/07 11:50:05;;;;;;;8.50;8.10;;;17.60;93.70;;;;;;6153489;23;20410;-76
2022/04/07 11:52:33;;;;;;;8.90;8.40;;;17.50;94.00;;;;;;6153603;23;20421;-78
2022/04/07 11:55:03;;;;;;;8.80;8.50;;;17.50;94.20;;;;;;6153324;23;20410;-76
2022/04/07 11:57:32;;;;;;;9.80;9.50;;;17.60;94.40;;;;;;6152107;23;20455;-77
2022/04/07 12:00:00;;;;;;;9.20;8.90;;;17.50;94.50;;;;;;6152734;23;20525;-77
2022/04/07 12:02:28;;;;;;;9.20;8.90;;;17.40;94.90;;;;;;6153288;23;20505;-76
2022/04/07 12:05:00;;;;;;;7.83;7.63;;;17.10;94.70;;;;;;6153232;23;20979;-75
2022/04/07 12:07:28;;;;;;;9.50;9.20;;;17.00;95.40;;;;;;6153995;23;20721;-75
2022/04/07 12:09:57;;;;;;;8.10;7.90;;;17.00;95.50;;;;;;6154077;23;20490;-76
2022/04/07 12:12:25;;;;;;;8.00;7.80;;;16.60;95.60;;;;;;6154548;23;20410;-77
2022/04/07 12:14:53;;;;;;;9.03;8.73;;;16.60;96.20;;;;;;6154218;23;20417;-76
2022/04/07 12:17:22;;;;;;;9.70;9.23;;;16.60;96.10;;;;;;6153663;23;20469;-77
2022/04/07 12:19:49;;;;;;;9.47;9.07;;;16.70;96.40;;;;;;6153547;23;20518;-77
2022/04/07 12:22:18;;;;;;;9.50;9.20;;;16.70;96.30;;;;;;6153140;23;20898;-77
2022/04/07 12:25:02;;;;;;;8.90;8.60;;;16.30;96.90;;;;;;6153249;23;20457;-77
2022/04/07 12:27:32;;;;;;;9.17;8.77;;;16.20;97.40;;;;;;6153562;23;20406;-77
2022/04/07 12:29:59;;;;;;;9.40;9.00;;;16.10;98.10;;;;;;6153416;23;20410;-77
2022/04/07 12:32:27;;;;;;;9.07;8.47;;;16.20;98.10;;;;;;6153733;23;20406;-75
2022/04/07 12:34:55;;;;;;;8.80;8.40;;;16.00;98.30;;;;;;6153616;23;20419;-76
2022/04/07 12:37:29;;;;;;;9.30;8.90;;;15.80;99.00;;;;;;6153722;23;21012;-76
2022/04/07 12:39:56;;;;;;;8.80;8.50;;;15.60;99.90;;;;;;6153412;23;20411;-76
2022/04/07 12:42:22;;;;;;;8.47;8.17;;;15.80;99.90;;;;;;6153594;23;20414;-77
2022/04/07 12:44:51;;;;;;;8.90;8.60;;;16.10;99.40;;;;;;6153344;23;20446;-77
2022/04/07 12:47:25;;;;;;;8.90;8.30;;;16.60;98.90;;;;;;6153057;23;20424;-76
2022/04/07 12:49:57;;;;;;;8.67;8.37;;;17.10;97.50;;;;;;6153624;23;20398;-76
2022/04/07 12:52:40;;;;;;;8.30;8.00;;;16.80;97.60;;;;;;6153747;23;20414;-76
2022/04/07 12:55:10;;;;;;;8.90;8.60;;;16.60;97.90;;;;;;6149128;23;20414;-76
2022/04/07 12:57:39;;;;;;;8.97;8.67;;;16.60;97.70;;;;;;6153362;23;20417;-77
2022/04/07 13:00:10;;;;;;;9.43;8.93;;;16.30;97.90;;;;;;6153479;23;20445;-75
2022/04/07 13:02:45;;;;;;;8.50;8.10;;;16.10;98.70;;;;;;6153994;23;20402;-77
2022/04/07 13:05:13;;;;;;;8.40;8.20;;;16.20;98.80;;;;;;6152911;23;20468;-76
2022/04/07 13:07:40;;;;;;;9.00;8.60;;;16.40;98.70;;;;;;6152630;23;20495;-77
2022/04/07 13:10:08;;;;;;;8.43;8.20;;;16.50;98.50;;;;;;6152852;23;20411;-78
2022/04/07 13:12:35;;;;;;;9.03;8.43;;;16.20;99.20;;;;;;6152434;23;20415;-78
2022/04/07 13:15:02;;;;;;;11.50;8.10;;;16.40;99.30;;;;;;6152403;23;20422;-78
2022/04/07 13:17:30;;;;;;;8.60;8.30;;;16.40;99.00;;;;;;6152722;23;20511;-78
2022/04/07 13:19:57;;;;;;;8.47;8.13;;;16.30;99.30;;;;;;6152722;23;20414;-77
2022/04/07 13:22:23;;;;;;;8.40;8.10;;;16.20;99.40;;;;;;6153146;23;20414;-77
2022/04/07 13:24:51;;;;;;;8.80;8.50;;;16.00;99.30;;;;;;6152031;23;20984;-78
2022/04/07 13:27:18;;;;;;;8.57;8.27;;;16.30;99.20;;;;;;6151955;23;20480;-78
2022/04/07 13:29:46;;;;;;;8.40;8.10;;;16.20;99.10;;;;;;6152391;23;20446;-78
2022/04/07 13:32:12;;;;;;;8.87;8.47;;;16.30;99.10;;;;;;6152558;23;20414;-78
2022/04/07 13:34:40;;;;;;;9.00;8.70;;;16.10;98.90;;;;;;6152891;23;20406;-77
2022/04/07 13:37:07;;;;;;;8.63;8.33;;;16.00;99.40;;;;;;6152885;23;20410;-77
2022/04/07 13:39:34;;;;;;;8.63;8.33;;;15.90;99.50;;;;;;6152360;23;20417;-76
2022/04/07 13:42:01;;;;;;;8.83;8.53;;;16.00;99.60;;;;;;6152114;23;20811;-78
2022/04/07 13:44:28;;;;;;;9.43;8.90;;;16.00;99.50;;;;;;6151922;23;20540;-77
2022/04/07 13:46:55;;;;;;;8.73;8.43;;;16.10;99.20;;;;;;6152379;23;20406;-77
2022/04/07 13:49:22;;;;;;;9.30;8.90;;;16.20;99.10;;;;;;6152824;23;20413;-80
2022/04/07 13:51:50;;;;;;;7.80;7.60;;;16.40;99.00;;;;;;6151241;23;20415;-77
2022/04/07 13:54:17;;;;;;;9.10;8.80;;;16.70;98.20;;;;;;6151651;23;21140;-77
2022/04/07 13:56:43;;;;;;;8.90;8.60;;;16.50;98.00;;;;;;6150699;23;20493;-77
2022/04/07 13:59:10;;;;;;;9.00;8.70;;;16.40;98.00;;;;;;6152607;23;20469;-74
2022/04/07 14:01:37;;;;;;;9.03;8.73;;;16.30;98.40;;;;;;6152776;23;20414;-77
2022/04/07 14:04:04;;;;;;;8.90;8.50;;;16.30;98.40;;;;;;6152306;23;20410;-77
2022/04/07 14:06:31;;;;;;;9.27;8.97;;;16.30;98.40;;;;;;6151261;23;20970;-75
2022/04/07 14:08:59;;;;;;;9.00;8.70;;;16.30;98.50;;;;;;6151517;23;20940;-75
2022/04/07 14:11:26;;;;;;;8.80;8.50;;;16.50;98.50;;;;;;6151877;23;20417;-75
2022/04/07 14:13:53;;;;;;;9.00;8.60;;;16.40;98.30;;;;;;6152315;23;20502;-75
2022/04/07 14:16:20;;;;;;;8.90;8.60;;;16.30;98.50;;;;;;6152394;23;20438;-75
2022/04/07 14:18:47;;;;;;;8.70;8.40;;;16.30;98.50;;;;;;6152286;23;20407;-75
2022/04/07 14:21:17;;;;;;;8.43;8.23;;;16.40;98.30;;;;;;6152125;23;20953;-75
2022/04/07 14:23:44;;;;;;;8.87;8.57;;;16.80;98.00;;;;;;6152281;23;20526;-75
2022/04/07 14:26:12;;;;;;;9.40;9.10;;;17.10;97.50;;;;;;6153203;23;20981;-75
2022/04/07 14:28:39;;;;;;;8.80;8.50;;;17.10;97.30;;;;;;6154437;23;20468;-76
2022/04/07 14:31:06;;;;;;;8.20;7.90;;;17.10;97.20;;;;;;6154328;23;20410;-76
2022/04/07 14:33:33;;;;;;;8.90;8.50;;;17.20;97.00;;;;;;6153889;23;20434;-76
2022/04/07 14:35:59;;;;;;;8.80;8.50;;;17.20;96.70;;;;;;6154119;23;20407;-76
2022/04/07 14:38:26;;;;;;;9.10;8.80;;;17.40;97.10;;;;;;6154169;23;20422;-76
2022/04/07 14:40:53;;;;;;;9.50;9.20;;;17.50;96.40;;;;;;6153935;23;20411;-75
2022/04/07 14:43:22;;;;;;;9.13;8.80;;;17.50;96.10;;;;;;6153603;23;20417;-76
2022/04/07 14:45:51;;;;;;;9.50;9.20;;;17.70;95.70;;;;;;6153566;23;20965;-75
2022/04/07 14:48:18;;;;;;;9.20;8.90;;;17.70;95.50;;;;;;6154141;23;20414;-76
2022/04/07 14:50:47;;;;;;;9.70;9.40;;;17.40;95.90;;;;;;6154153;23;20410;-75
2022/04/07 14:53:14;;;;;;;9.10;8.73;;;17.30;96.00;;;;;;6154124;23;20407;-76
2022/04/07 14:55:41;;;;;;;8.90;8.60;;;17.10;96.40;;;;;;6154102;23;20717;-76
2022/04/07 14:58:12;;;;;;;8.90;8.60;;;17.00;96.80;;;;;;6154226;23;20446;-75
2022/04/07 15:00:40;;;;;;;8.73;8.43;;;17.20;96.70;;;;;;6154173;23;20485;-76
2022/04/07 15:03:07;;;;;;;8.50;8.30;;;17.10;96.60;;;;;;6154002;23;20465;-75
2022/04/07 15:05:35;;;;;;;8.90;8.60;;;16.90;96.60;;;;;;6153798;23;20450;-75
2022/04/07 15:08:02;;;;;;;8.30;8.00;;;16.70;97.10;;;;;;6154159;23;20410;-76
2022/04/07 15:10:29;;;;;;;8.27;7.97;;;16.80;97.10;;;;;;6154165;23;20410;-76
2022/04/07 15:12:55;;;;;;;8.93;8.53;;;17.00;96.90;;;;;;6153843;23;20421;-75
2022/04/07 15:15:23;;;;;;;8.40;8.10;;;17.20;96.50;;;;;;6152745;23;20406;-76
2022/04/07 15:17:51;;;;;;;8.20;8.00;;;17.20;96.50;;;;;;6153911;23;20410;-76
2022/04/07 15:20:19;;;;;;;8.47;8.20;;;17.20;96.40;;;;;;6153874;23;20411;-76
2022/04/07 15:22:47;;;;;;;8.30;8.10;;;17.20;96.30;;;;;;6151951;23;21157;-76
2022/04/07 15:25:14;;;;;;;8.63;8.33;;;17.30;96.30;;;;;;6152724;23;20454;-75
2022/04/07 15:27:41;;;;;;;8.47;8.17;;;17.40;96.30;;;;;;6153667;23;20410;-75
2022/04/07 15:30:12;;;;;;;8.37;8.13;;;17.50;96.20;;;;;;6153512;23;20920;-75
2022/04/07 15:32:39;;;;;;;8.90;8.50;;;17.40;95.90;;;;;;6154364;23;20396;-75
2022/04/07 15:35:08;;;;;;;9.07;8.70;;;17.30;96.20;;;;;;6154037;23;20410;-75
2022/04/07 15:37:35;;;;;;;10.13;9.20;;;17.30;96.50;;;;;;6153783;23;20411;-75
2022/04/07 15:40:04;;;;;;;9.67;9.27;;;16.80;97.60;;;;;;6153766;23;20973;-76
2022/04/07 15:42:31;;;;;;;9.10;8.80;;;16.50;99.60;;;;;;6153729;23;20504;-75
2022/04/07 15:44:58;;;;;;;10.03;9.73;;;16.20;99.90;;;;;;6153521;23;20438;-74
2022/04/07 15:47:24;;;;;;;9.43;9.13;;;15.90;99.90;;;;;;6153892;23;20446;-76
2022/04/07 15:49:52;;;;;;;10.10;9.50;;;15.40;99.90;;;;;;6153678;23;20411;-76
2022/04/07 15:52:20;;;;;;;9.63;9.33;;;15.20;99.90;;;;;;6153819;23;20417;-76
2022/04/07 15:54:47;;;;;;;9.80;9.50;;;15.20;99.90;;;;;;6153576;23;20410;-76
2022/04/07 15:57:13;;;;;;;9.30;8.90;;;15.20;99.90;;;;;;6153477;23;20735;-75
2022/04/07 15:59:40;;;;;;;9.17;8.67;;;15.00;99.90;;;;;;6153754;23;20410;-75
2022/04/07 16:02:07;;;;;;;8.67;8.37;;;15.00;99.90;;;;;;6153774;23;20410;-75
2022/04/07 16:04:33;;;;;;;8.37;8.13;;;15.00;99.90;;;;;;6153257;23;20977;-73
2022/04/07 16:07:01;;;;;;;8.60;8.30;;;15.10;99.90;;;;;;6153133;23;21035;-74
2022/04/07 16:09:31;;;;;;;9.00;8.60;;;15.10;99.90;;;;;;6153220;23;20414;-74
2022/04/07 16:11:57;;;;;;;8.37;8.07;;;15.20;99.90;;;;;;6152943;23;20453;-75
2022/04/07 16:14:24;;;;;;;11.03;10.63;;;15.00;99.90;;;;;;6153687;23;20418;-75
2022/04/07 16:16:52;;;;;;;19.40;18.70;;;14.70;99.90;;;;;;6153441;23;20457;-75
2022/04/07 16:19:20;;;;;;;24.60;23.67;;;14.20;99.90;;;;;;6153957;23;20410;-78
2022/04/07 16:21:47;;;;;;;24.90;23.90;;;13.80;99.90;;;;;;6154476;23;20411;-78
2022/04/07 16:24:13;;;;;;;26.93;25.73;;;13.50;99.90;;;;;;6153439;23;20430;-76
2022/04/07 16:26:41;;;;;;;28.97;27.57;;;13.30;99.90;;;;;;6153104;23;20457;-76
2022/04/07 16:29:08;;;;;;;30.27;28.87;;;13.20;99.90;;;;;;6154462;23;20410;-75
2022/04/07 16:31:35;;;;;;;30.73;29.33;;;13.00;99.90;;;;;;6154434;23;20406;-77
2022/04/07 16:34:04;;;;;;;31.93;30.43;;;12.90;99.90;;;;;;6154269;23;20811;-78
2022/04/07 16:36:31;;;;;;;31.00;29.60;;;12.70;99.90;;;;;;6154241;23;20696;-77
2022/04/07 16:38:57;;;;;;;30.00;28.10;;;12.70;99.90;;;;;;6153168;23;20418;-76
2022/04/07 16:41:24;;;;;;;30.70;29.10;;;12.60;99.90;;;;;;6153472;23;20441;-75
2022/04/07 16:43:54;;;;;;;30.03;28.43;;;12.50;99.90;;;;;;6153102;23;20925;-75
2022/04/07 16:46:20;;;;;;;31.70;30.10;;;12.40;99.90;;;;;;6153377;23;20953;-73
2022/04/07 16:48:47;;;;;;;31.23;29.70;;;12.40;99.90;;;;;;6152743;23;20406;-73
2022/04/07 16:51:13;;;;;;;31.87;30.27;;;12.40;99.90;;;;;;6153236;23;20836;-74
2022/04/07 16:53:40;;;;;;;31.53;29.93;;;12.30;99.90;;;;;;6152849;23;20977;-74
2022/04/07 16:56:07;;;;;;;31.30;29.80;;;12.20;99.90;;;;;;6153243;23;20772;-76
2022/04/07 16:58:34;;;;;;;32.27;30.67;;;12.20;99.90;;;;;;6151078;23;20423;-75
2022/04/07 17:01:02;;;;;;;33.70;32.10;;;12.10;99.90;;;;;;6152660;23;20422;-75
2022/04/07 17:03:29;;;;;;;33.27;31.67;;;12.10;99.90;;;;;;6151680;23;20407;-75
2022/04/07 17:05:56;;;;;;;31.90;30.40;;;12.10;99.90;;;;;;6151960;23;20454;-77
2022/04/07 17:08:22;;;;;;;30.97;29.57;;;12.10;99.90;;;;;;6151995;23;20481;-77
2022/04/07 17:10:49;;;;;;;29.57;28.27;;;12.10;99.90;;;;;;6150941;23;20418;-77
2022/04/07 17:13:16;;;;;;;29.83;28.33;;;12.00;99.90;;;;;;6151528;23;20525;-77
2022/04/07 17:15:44;;;;;;;29.70;28.40;;;12.00;99.90;;;;;;6151923;23;20926;-79
2022/04/07 17:18:14;;;;;;;29.03;27.73;;;12.00;99.90;;;;;;6151753;23;20414;-78
2022/04/07 17:20:40;;;;;;;28.47;27.17;;;12.00;99.90;;;;;;6151965;23;20417;-79
2022/04/07 17:23:07;;;;;;;29.67;28.37;;;12.00;99.90;;;;;;6155035;23;20470;-91
2022/04/07 17:25:34;;;;;;;28.53;27.23;;;12.00;99.90;;;;;;6160542;23;20465;-90
2022/04/07 17:28:00;;;;;;;28.47;27.20;;;12.00;99.90;;;;;;6160919;23;20419;-89
2022/04/07 17:30:29;;;;;;;28.70;27.40;;;12.00;99.90;;;;;;6159321;23;20461;-89
2022/04/07 17:32:57;;;;;;;27.33;26.17;;;11.90;99.90;;;;;;6158473;23;20514;-88
2022/04/07 17:35:25;;;;;;;28.63;27.23;;;11.90;99.90;;;;;;6166950;23;20395;-89
2022/04/07 17:37:52;;;;;;;29.10;27.70;;;11.90;99.90;;;;;;6174845;23;20390;-91
2022/04/07 17:40:19;;;;;;;28.90;27.57;;;11.90;99.90;;;;;;6168628;23;20411;-81
2022/04/07 17:42:46;;;;;;;28.67;27.33;;;11.90;99.90;;;;;;6151348;23;20501;-76
2022/04/07 17:45:12;;;;;;;29.13;27.73;;;11.70;99.90;;;;;;6151577;23;20410;-75
2022/04/07 17:47:39;;;;;;;29.73;28.33;;;11.70;99.90;;;;;;6152313;23;20450;-75
2022/04/07 17:50:07;;;;;;;29.17;27.87;;;11.70;99.90;;;;;;6152512;23;20406;-76
2022/04/07 17:52:39;;;;;;;29.00;27.70;;;11.70;99.90;;;;;;6152130;23;20448;-75
2022/04/07 17:55:08;;;;;;;28.10;26.90;;;11.60;99.90;;;;;;6152185;23;20401;-76
2022/04/07 17:57:36;;;;;;;28.80;27.50;;;11.50;99.90;;;;;;6152218;23;20410;-75
2022/04/07 18:00:03;;;;;;;28.60;27.30;;;11.60;99.90;;;;;;6152023;23;20411;-76
2022/04/07 18:02:30;;;;;;;27.23;25.90;;;11.50;99.90;;;;;;6151685;23;20410;-76
2022/04/07 18:04:56;;;;;;;28.67;27.33;;;11.40;99.90;;;;;;6151743;23;20410;-76
2022/04/07 18:07:23;;;;;;;28.90;27.60;;;11.40;99.90;;;;;;6151848;23;20442;-74
2022/04/07 18:09:52;;;;;;;28.10;26.70;;;11.40;99.90;;;;;;6151609;23;20887;-76